sensor_id;sensor_type;location;lat;lon;timestamp;temperature;humidity
74336;DHT22;62755;-33.398;-70.572;2022-11-02T00:00:41;25.30;23.70
74336;DHT22;62755;-33.398;-70.572;2022-11-02T00:03:11;25.30;23.50
74336;DHT22;62755;-33.398;-70.572;2022-11-02T00:05:40;25.20;23.50
74336;DHT22;62755;-33.398;-70.572;2022-11-02T00:08:10;25.20;23.50
74336;DHT22;62755;-33.398;-70.572;2022-11-02T00:10:42;25.20;23.50
74336;DHT22;62755;-33.398;-70.572;2022-11-02T00:13:11;25.20;23.70
74336;DHT22;62755;-33.398;-70.572;2022-11-02T00:15:41;25.20;23.70
74336;DHT22;62755;-33.398;-70.572;2022-11-02T00:18:14;25.30;23.60
74336;DHT22;62755;-33.398;-70.572;2022-11-02T00:20:44;25.20;23.70
74336;DHT22;62755;-33.398;-70.572;2022-11-02T00:23:14;25.20;23.70
74336;DHT22;62755;-33.398;-70.572;2022-11-02T00:25:47;25.20;23.90
74336;DHT22;62755;-33.398;-70.572;2022-11-02T00:28:17;25.20;23.70
74336;DHT22;62755;-33.398;-70.572;2022-11-02T00:30:47;25.10;23.80
74336;DHT22;62755;-33.398;-70.572;2022-11-02T00:33:17;25.20;23.70
74336;DHT22;62755;-33.398;-70.572;2022-11-02T00:35:47;25.10;23.70
74336;DHT22;62755;-33.398;-70.572;2022-11-02T00:38:16;25.00;23.80
74336;DHT22;62755;-33.398;-70.572;2022-11-02T00:40:48;25.00;23.90
74336;DHT22;62755;-33.398;-70.572;2022-11-02T00:43:18;25.00;24.00
74336;DHT22;62755;-33.398;-70.572;2022-11-02T00:45:47;25.00;23.90
74336;DHT22;62755;-33.398;-70.572;2022-11-02T00:48:17;25.00;23.80
74336;DHT22;62755;-33.398;-70.572;2022-11-02T00:50:47;24.70;23.60
74336;DHT22;62755;-33.398;-70.572;2022-11-02T00:53:17;24.60;23.50
74336;DHT22;62755;-33.398;-70.572;2022-11-02T00:55:48;24.40;23.60
74336;DHT22;62755;-33.398;-70.572;2022-11-02T00:58:20;24.40;23.90
74336;DHT22;62755;-33.398;-70.572;2022-11-02T01:00:49;24.40;23.60
74336;DHT22;62755;-33.398;-70.572;2022-11-02T01:03:19;24.30;23.60
74336;DHT22;62755;-33.398;-70.572;2022-11-02T01:05:48;24.30;23.90
74336;DHT22;62755;-33.398;-70.572;2022-11-02T01:08:18;24.40;25.00
74336;DHT22;62755;-33.398;-70.572;2022-11-02T01:10:50;24.40;24.10
74336;DHT22;62755;-33.398;-70.572;2022-11-02T01:13:19;24.40;24.30
74336;DHT22;62755;-33.398;-70.572;2022-11-02T01:15:49;24.40;23.70
74336;DHT22;62755;-33.398;-70.572;2022-11-02T01:18:19;24.40;23.90
74336;DHT22;62755;-33.398;-70.572;2022-11-02T01:20:55;24.40;23.80
74336;DHT22;62755;-33.398;-70.572;2022-11-02T01:23:25;24.40;24.00
74336;DHT22;62755;-33.398;-70.572;2022-11-02T01:25:56;24.40;23.60
74336;DHT22;62755;-33.398;-70.572;2022-11-02T01:28:26;24.20;23.70
74336;DHT22;62755;-33.398;-70.572;2022-11-02T01:30:55;24.00;23.60
74336;DHT22;62755;-33.398;-70.572;2022-11-02T01:33:25;24.00;23.70
74336;DHT22;62755;-33.398;-70.572;2022-11-02T01:35:55;23.90;23.70
74336;DHT22;62755;-33.398;-70.572;2022-11-02T01:38:25;23.80;23.80
74336;DHT22;62755;-33.398;-70.572;2022-11-02T01:40:56;23.90;23.80
74336;DHT22;62755;-33.398;-70.572;2022-11-02T01:43:27;23.90;23.70
74336;DHT22;62755;-33.398;-70.572;2022-11-02T01:45:59;23.80;23.70
74336;DHT22;62755;-33.398;-70.572;2022-11-02T01:48:33;23.70;23.70
74336;DHT22;62755;-33.398;-70.572;2022-11-02T01:51:07;23.60;23.80
74336;DHT22;62755;-33.398;-70.572;2022-11-02T01:53:41;23.50;23.80
74336;DHT22;62755;-33.398;-70.572;2022-11-02T01:56:14;23.50;24.00
74336;DHT22;62755;-33.398;-70.572;2022-11-02T01:58:48;23.50;24.10
74336;DHT22;62755;-33.398;-70.572;2022-11-02T02:01:18;23.60;24.10
74336;DHT22;62755;-33.398;-70.572;2022-11-02T02:03:48;23.60;24.10
74336;DHT22;62755;-33.398;-70.572;2022-11-02T02:06:19;23.70;24.20
74336;DHT22;62755;-33.398;-70.572;2022-11-02T02:08:50;23.80;24.20
74336;DHT22;62755;-33.398;-70.572;2022-11-02T02:11:29;24.00;24.10
74336;DHT22;62755;-33.398;-70.572;2022-11-02T02:14:01;24.00;24.00
74336;DHT22;62755;-33.398;-70.572;2022-11-02T02:16:43;24.00;24.10
74336;DHT22;62755;-33.398;-70.572;2022-11-02T02:19:28;24.00;24.20
74336;DHT22;62755;-33.398;-70.572;2022-11-02T02:22:32;24.00;24.10
74336;DHT22;62755;-33.398;-70.572;2022-11-02T02:25:22;24.10;24.10
74336;DHT22;62755;-33.398;-70.572;2022-11-02T02:28:06;24.20;23.90
74336;DHT22;62755;-33.398;-70.572;2022-11-02T02:30:39;24.20;24.00
74336;DHT22;62755;-33.398;-70.572;2022-11-02T02:33:12;24.20;24.10
74336;DHT22;62755;-33.398;-70.572;2022-11-02T02:35:45;24.10;24.00
74336;DHT22;62755;-33.398;-70.572;2022-11-02T02:38:19;24.00;24.10
74336;DHT22;62755;-33.398;-70.572;2022-11-02T02:40:53;23.90;24.40
74336;DHT22;62755;-33.398;-70.572;2022-11-02T02:43:33;23.90;24.60
74336;DHT22;62755;-33.398;-70.572;2022-11-02T02:46:07;23.70;25.10
74336;DHT22;62755;-33.398;-70.572;2022-11-02T02:48:38;23.60;25.10
74336;DHT22;62755;-33.398;-70.572;2022-11-02T02:51:13;23.60;25.00
74336;DHT22;62755;-33.398;-70.572;2022-11-02T02:53:47;23.50;25.30
74336;DHT22;62755;-33.398;-70.572;2022-11-02T02:56:20;23.50;25.30
74336;DHT22;62755;-33.398;-70.572;2022-11-02T02:58:57;23.50;25.50
74336;DHT22;62755;-33.398;-70.572;2022-11-02T03:01:28;23.50;25.90
74336;DHT22;62755;-33.398;-70.572;2022-11-02T03:03:58;23.40;25.70
74336;DHT22;62755;-33.398;-70.572;2022-11-02T03:06:29;23.20;25.70
74336;DHT22;62755;-33.398;-70.572;2022-11-02T03:09:07;23.20;26.00
74336;DHT22;62755;-33.398;-70.572;2022-11-02T03:11:41;23.30;26.90
74336;DHT22;62755;-33.398;-70.572;2022-11-02T03:14:21;23.30;26.90
74336;DHT22;62755;-33.398;-70.572;2022-11-02T03:17:07;23.30;27.40
74336;DHT22;62755;-33.398;-70.572;2022-11-02T03:19:46;23.30;27.50
74336;DHT22;62755;-33.398;-70.572;2022-11-02T03:22:25;23.30;27.60
74336;DHT22;62755;-33.398;-70.572;2022-11-02T03:25:06;23.30;27.90
74336;DHT22;62755;-33.398;-70.572;2022-11-02T03:27:47;23.40;28.20
74336;DHT22;62755;-33.398;-70.572;2022-11-02T03:30:22;23.40;27.90
74336;DHT22;62755;-33.398;-70.572;2022-11-02T03:32:56;23.40;27.70
74336;DHT22;62755;-33.398;-70.572;2022-11-02T03:35:33;23.40;27.70
74336;DHT22;62755;-33.398;-70.572;2022-11-02T03:38:06;23.30;28.00
74336;DHT22;62755;-33.398;-70.572;2022-11-02T03:40:42;23.30;27.80
74336;DHT22;62755;-33.398;-70.572;2022-11-02T03:43:13;23.30;28.00
74336;DHT22;62755;-33.398;-70.572;2022-11-02T03:45:48;23.10;27.30
74336;DHT22;62755;-33.398;-70.572;2022-11-02T03:48:19;22.80;27.60
74336;DHT22;62755;-33.398;-70.572;2022-11-02T03:50:52;22.70;27.40
74336;DHT22;62755;-33.398;-70.572;2022-11-02T03:53:29;22.50;27.50
74336;DHT22;62755;-33.398;-70.572;2022-11-02T03:56:03;22.50;27.90
74336;DHT22;62755;-33.398;-70.572;2022-11-02T03:58:35;22.50;27.80
74336;DHT22;62755;-33.398;-70.572;2022-11-02T04:01:07;22.50;27.60
74336;DHT22;62755;-33.398;-70.572;2022-11-02T04:03:40;22.50;27.80
74336;DHT22;62755;-33.398;-70.572;2022-11-02T04:06:11;22.60;27.80
74336;DHT22;62755;-33.398;-70.572;2022-11-02T04:08:43;22.70;27.40
74336;DHT22;62755;-33.398;-70.572;2022-11-02T04:11:14;22.70;27.70
74336;DHT22;62755;-33.398;-70.572;2022-11-02T04:14:00;22.70;27.80
74336;DHT22;62755;-33.398;-70.572;2022-11-02T04:16:48;22.70;27.90
74336;DHT22;62755;-33.398;-70.572;2022-11-02T04:19:38;22.70;27.80
74336;DHT22;62755;-33.398;-70.572;2022-11-02T04:22:07;22.70;27.60
74336;DHT22;62755;-33.398;-70.572;2022-11-02T04:24:53;22.70;27.60
74336;DHT22;62755;-33.398;-70.572;2022-11-02T04:27:39;22.70;27.60
74336;DHT22;62755;-33.398;-70.572;2022-11-02T04:30:09;22.70;27.60
74336;DHT22;62755;-33.398;-70.572;2022-11-02T04:32:42;22.70;27.50
74336;DHT22;62755;-33.398;-70.572;2022-11-02T04:35:28;22.70;27.70
74336;DHT22;62755;-33.398;-70.572;2022-11-02T04:37:59;22.60;27.60
74336;DHT22;62755;-33.398;-70.572;2022-11-02T04:40:45;22.60;27.50
74336;DHT22;62755;-33.398;-70.572;2022-11-02T04:43:14;22.50;27.60
74336;DHT22;62755;-33.398;-70.572;2022-11-02T04:45:44;22.30;27.80
74336;DHT22;62755;-33.398;-70.572;2022-11-02T04:48:15;22.30;27.80
74336;DHT22;62755;-33.398;-70.572;2022-11-02T04:50:45;22.30;27.80
74336;DHT22;62755;-33.398;-70.572;2022-11-02T04:53:14;22.30;27.80
74336;DHT22;62755;-33.398;-70.572;2022-11-02T04:55:46;22.30;27.90
74336;DHT22;62755;-33.398;-70.572;2022-11-02T04:58:16;22.30;28.00
74336;DHT22;62755;-33.398;-70.572;2022-11-02T05:00:45;22.30;27.80
74336;DHT22;62755;-33.398;-70.572;2022-11-02T05:03:17;22.30;27.90
74336;DHT22;62755;-33.398;-70.572;2022-11-02T05:05:46;22.40;28.00
74336;DHT22;62755;-33.398;-70.572;2022-11-02T05:08:16;22.30;28.00
74336;DHT22;62755;-33.398;-70.572;2022-11-02T05:10:46;22.30;28.00
74336;DHT22;62755;-33.398;-70.572;2022-11-02T05:13:15;22.20;27.60
74336;DHT22;62755;-33.398;-70.572;2022-11-02T05:15:45;22.10;27.50
74336;DHT22;62755;-33.398;-70.572;2022-11-02T05:18:16;22.10;27.50
74336;DHT22;62755;-33.398;-70.572;2022-11-02T05:20:50;22.10;27.90
74336;DHT22;62755;-33.398;-70.572;2022-11-02T05:23:21;22.10;28.00
74336;DHT22;62755;-33.398;-70.572;2022-11-02T05:25:54;22.10;27.90
74336;DHT22;62755;-33.398;-70.572;2022-11-02T05:28:26;22.10;28.00
74336;DHT22;62755;-33.398;-70.572;2022-11-02T05:30:58;22.00;27.60
74336;DHT22;62755;-33.398;-70.572;2022-11-02T05:33:30;21.90;27.60
74336;DHT22;62755;-33.398;-70.572;2022-11-02T05:36:00;21.70;27.80
74336;DHT22;62755;-33.398;-70.572;2022-11-02T05:38:30;21.50;27.80
74336;DHT22;62755;-33.398;-70.572;2022-11-02T05:41:00;21.40;27.70
74336;DHT22;62755;-33.398;-70.572;2022-11-02T05:43:30;21.30;27.80
74336;DHT22;62755;-33.398;-70.572;2022-11-02T05:46:00;21.40;27.70
74336;DHT22;62755;-33.398;-70.572;2022-11-02T05:48:32;21.50;27.60
74336;DHT22;62755;-33.398;-70.572;2022-11-02T05:51:03;21.50;27.30
74336;DHT22;62755;-33.398;-70.572;2022-11-02T05:53:33;21.50;27.20
74336;DHT22;62755;-33.398;-70.572;2022-11-02T05:56:05;21.50;27.20
74336;DHT22;62755;-33.398;-70.572;2022-11-02T05:58:36;21.50;27.30
74336;DHT22;62755;-33.398;-70.572;2022-11-02T06:01:06;21.50;27.60
74336;DHT22;62755;-33.398;-70.572;2022-11-02T06:03:38;21.50;27.70
74336;DHT22;62755;-33.398;-70.572;2022-11-02T06:06:09;21.60;27.60
74336;DHT22;62755;-33.398;-70.572;2022-11-02T06:08:39;21.50;28.00
74336;DHT22;62755;-33.398;-70.572;2022-11-02T06:11:10;21.50;28.00
74336;DHT22;62755;-33.398;-70.572;2022-11-02T06:13:40;21.50;27.70
74336;DHT22;62755;-33.398;-70.572;2022-11-02T06:16:11;21.30;27.60
74336;DHT22;62755;-33.398;-70.572;2022-11-02T06:18:43;21.10;27.80
74336;DHT22;62755;-33.398;-70.572;2022-11-02T06:21:13;21.10;28.00
74336;DHT22;62755;-33.398;-70.572;2022-11-02T06:23:45;21.10;27.50
74336;DHT22;62755;-33.398;-70.572;2022-11-02T06:26:14;21.10;27.20
74336;DHT22;62755;-33.398;-70.572;2022-11-02T06:28:44;21.00;27.50
74336;DHT22;62755;-33.398;-70.572;2022-11-02T06:31:14;20.90;27.50
74336;DHT22;62755;-33.398;-70.572;2022-11-02T06:33:46;20.80;27.50
74336;DHT22;62755;-33.398;-70.572;2022-11-02T06:36:15;20.80;27.60
74336;DHT22;62755;-33.398;-70.572;2022-11-02T06:38:45;20.70;27.60
74336;DHT22;62755;-33.398;-70.572;2022-11-02T06:41:14;20.60;27.80
74336;DHT22;62755;-33.398;-70.572;2022-11-02T06:43:44;20.60;28.00
74336;DHT22;62755;-33.398;-70.572;2022-11-02T06:46:14;20.60;28.50
74336;DHT22;62755;-33.398;-70.572;2022-11-02T06:48:46;20.70;28.40
74336;DHT22;62755;-33.398;-70.572;2022-11-02T06:51:16;20.80;28.50
74336;DHT22;62755;-33.398;-70.572;2022-11-02T06:53:46;20.80;28.20
74336;DHT22;62755;-33.398;-70.572;2022-11-02T06:56:16;20.90;28.20
74336;DHT22;62755;-33.398;-70.572;2022-11-02T06:58:45;20.90;28.10
74336;DHT22;62755;-33.398;-70.572;2022-11-02T07:01:15;20.90;27.90
74336;DHT22;62755;-33.398;-70.572;2022-11-02T07:03:46;20.80;27.90
74336;DHT22;62755;-33.398;-70.572;2022-11-02T07:06:16;20.70;27.40
74336;DHT22;62755;-33.398;-70.572;2022-11-02T07:08:46;20.60;27.60
74336;DHT22;62755;-33.398;-70.572;2022-11-02T07:11:15;20.60;27.60
74336;DHT22;62755;-33.398;-70.572;2022-11-02T07:13:45;20.50;28.10
74336;DHT22;62755;-33.398;-70.572;2022-11-02T07:16:15;20.60;28.00
74336;DHT22;62755;-33.398;-70.572;2022-11-02T07:18:46;20.50;27.60
74336;DHT22;62755;-33.398;-70.572;2022-11-02T07:21:16;20.60;27.80
74336;DHT22;62755;-33.398;-70.572;2022-11-02T07:23:45;20.50;27.50
74336;DHT22;62755;-33.398;-70.572;2022-11-02T07:26:15;20.50;27.60
74336;DHT22;62755;-33.398;-70.572;2022-11-02T07:28:45;20.50;27.60
74336;DHT22;62755;-33.398;-70.572;2022-11-02T07:31:15;20.50;27.60
74336;DHT22;62755;-33.398;-70.572;2022-11-02T07:33:46;20.50;27.70
74336;DHT22;62755;-33.398;-70.572;2022-11-02T07:36:16;20.50;27.90
74336;DHT22;62755;-33.398;-70.572;2022-11-02T07:38:45;20.50;27.90
74336;DHT22;62755;-33.398;-70.572;2022-11-02T07:41:15;20.60;27.80
74336;DHT22;62755;-33.398;-70.572;2022-11-02T07:43:45;20.60;27.90
74336;DHT22;62755;-33.398;-70.572;2022-11-02T07:46:15;20.60;27.70
74336;DHT22;62755;-33.398;-70.572;2022-11-02T07:48:47;20.70;27.80
74336;DHT22;62755;-33.398;-70.572;2022-11-02T07:51:16;20.70;27.90
74336;DHT22;62755;-33.398;-70.572;2022-11-02T07:53:46;20.70;27.90
74336;DHT22;62755;-33.398;-70.572;2022-11-02T07:56:16;20.80;28.10
74336;DHT22;62755;-33.398;-70.572;2022-11-02T07:58:45;20.80;28.40
74336;DHT22;62755;-33.398;-70.572;2022-11-02T08:01:15;20.80;28.30
74336;DHT22;62755;-33.398;-70.572;2022-11-02T08:03:46;20.80;27.40
74336;DHT22;62755;-33.398;-70.572;2022-11-02T08:06:16;20.70;27.30
74336;DHT22;62755;-33.398;-70.572;2022-11-02T08:08:46;20.70;27.40
74336;DHT22;62755;-33.398;-70.572;2022-11-02T08:11:16;20.60;27.50
74336;DHT22;62755;-33.398;-70.572;2022-11-02T08:13:45;20.60;27.60
74336;DHT22;62755;-33.398;-70.572;2022-11-02T08:16:15;20.60;27.50
74336;DHT22;62755;-33.398;-70.572;2022-11-02T08:18:46;20.70;27.40
74336;DHT22;62755;-33.398;-70.572;2022-11-02T08:21:16;20.70;27.70
74336;DHT22;62755;-33.398;-70.572;2022-11-02T08:23:45;20.70;27.90
74336;DHT22;62755;-33.398;-70.572;2022-11-02T08:26:15;20.70;28.10
74336;DHT22;62755;-33.398;-70.572;2022-11-02T08:28:45;20.70;27.90
74336;DHT22;62755;-33.398;-70.572;2022-11-02T08:31:16;20.80;27.80
74336;DHT22;62755;-33.398;-70.572;2022-11-02T08:33:47;20.70;28.20
74336;DHT22;62755;-33.398;-70.572;2022-11-02T08:36:17;20.70;28.30
74336;DHT22;62755;-33.398;-70.572;2022-11-02T08:38:46;20.60;28.20
74336;DHT22;62755;-33.398;-70.572;2022-11-02T08:41:16;20.60;27.90
74336;DHT22;62755;-33.398;-70.572;2022-11-02T08:43:45;20.60;28.10
74336;DHT22;62755;-33.398;-70.572;2022-11-02T08:46:15;20.50;28.10
74336;DHT22;62755;-33.398;-70.572;2022-11-02T08:48:46;20.50;28.00
74336;DHT22;62755;-33.398;-70.572;2022-11-02T08:51:17;20.50;28.10
74336;DHT22;62755;-33.398;-70.572;2022-11-02T08:53:46;20.50;28.10
74336;DHT22;62755;-33.398;-70.572;2022-11-02T08:56:16;20.40;27.90
74336;DHT22;62755;-33.398;-70.572;2022-11-02T08:58:46;20.40;27.70
74336;DHT22;62755;-33.398;-70.572;2022-11-02T09:01:15;20.30;27.50
74336;DHT22;62755;-33.398;-70.572;2022-11-02T09:03:47;20.10;27.60
74336;DHT22;62755;-33.398;-70.572;2022-11-02T09:06:16;19.90;27.50
74336;DHT22;62755;-33.398;-70.572;2022-11-02T09:08:47;19.70;27.70
74336;DHT22;62755;-33.398;-70.572;2022-11-02T09:11:16;19.70;27.90
74336;DHT22;62755;-33.398;-70.572;2022-11-02T09:13:46;19.70;28.10
74336;DHT22;62755;-33.398;-70.572;2022-11-02T09:16:16;19.90;28.30
74336;DHT22;62755;-33.398;-70.572;2022-11-02T09:18:47;20.00;28.40
74336;DHT22;62755;-33.398;-70.572;2022-11-02T09:21:17;20.00;28.30
74336;DHT22;62755;-33.398;-70.572;2022-11-02T09:23:47;19.90;28.30
74336;DHT22;62755;-33.398;-70.572;2022-11-02T09:26:16;19.70;28.00
74336;DHT22;62755;-33.398;-70.572;2022-11-02T09:28:46;19.50;28.00
74336;DHT22;62755;-33.398;-70.572;2022-11-02T09:31:15;19.40;28.20
74336;DHT22;62755;-33.398;-70.572;2022-11-02T09:33:47;19.50;28.60
74336;DHT22;62755;-33.398;-70.572;2022-11-02T09:36:17;19.30;28.80
74336;DHT22;62755;-33.398;-70.572;2022-11-02T09:38:46;19.10;29.10
74336;DHT22;62755;-33.398;-70.572;2022-11-02T09:41:22;19.10;29.30
74336;DHT22;62755;-33.398;-70.572;2022-11-02T09:44:00;19.10;29.50
74336;DHT22;62755;-33.398;-70.572;2022-11-02T09:46:32;19.10;29.70
74336;DHT22;62755;-33.398;-70.572;2022-11-02T09:49:09;19.10;29.50
74336;DHT22;62755;-33.398;-70.572;2022-11-02T09:51:42;19.20;29.90
74336;DHT22;62755;-33.398;-70.572;2022-11-02T09:54:16;19.20;29.40
74336;DHT22;62755;-33.398;-70.572;2022-11-02T09:56:47;19.10;29.20
74336;DHT22;62755;-33.398;-70.572;2022-11-02T09:59:19;19.00;29.70
74336;DHT22;62755;-33.398;-70.572;2022-11-02T10:01:57;19.10;29.90
74336;DHT22;62755;-33.398;-70.572;2022-11-02T10:04:53;19.10;29.80
74336;DHT22;62755;-33.398;-70.572;2022-11-02T10:07:45;19.00;30.00
74336;DHT22;62755;-33.398;-70.572;2022-11-02T10:10:22;19.10;30.30
74336;DHT22;62755;-33.398;-70.572;2022-11-02T10:13:00;19.20;30.30
74336;DHT22;62755;-33.398;-70.572;2022-11-02T10:15:35;19.20;30.00
74336;DHT22;62755;-33.398;-70.572;2022-11-02T10:18:08;19.40;29.80
74336;DHT22;62755;-33.398;-70.572;2022-11-02T10:20:45;19.40;30.10
74336;DHT22;62755;-33.398;-70.572;2022-11-02T10:23:21;19.40;30.50
74336;DHT22;62755;-33.398;-70.572;2022-11-02T10:25:53;19.50;30.40
74336;DHT22;62755;-33.398;-70.572;2022-11-02T10:28:26;19.40;30.10
74336;DHT22;62755;-33.398;-70.572;2022-11-02T10:30:58;19.40;29.90
74336;DHT22;62755;-33.398;-70.572;2022-11-02T10:33:29;19.40;29.70
74336;DHT22;62755;-33.398;-70.572;2022-11-02T10:36:18;19.40;29.90
74336;DHT22;62755;-33.398;-70.572;2022-11-02T10:39:01;19.50;29.70
74336;DHT22;62755;-33.398;-70.572;2022-11-02T10:41:44;19.40;29.90
74336;DHT22;62755;-33.398;-70.572;2022-11-02T10:47:11;19.70;30.70
74336;DHT22;62755;-33.398;-70.572;2022-11-02T10:50:13;19.70;30.80
74336;DHT22;62755;-33.398;-70.572;2022-11-02T10:52:46;19.80;31.00
74336;DHT22;62755;-33.398;-70.572;2022-11-02T10:55:22;19.80;30.60
74336;DHT22;62755;-33.398;-70.572;2022-11-02T10:57:54;19.90;30.80
74336;DHT22;62755;-33.398;-70.572;2022-11-02T11:00:29;19.90;30.60
74336;DHT22;62755;-33.398;-70.572;2022-11-02T11:03:05;19.90;30.80
74336;DHT22;62755;-33.398;-70.572;2022-11-02T11:05:37;19.90;30.80
74336;DHT22;62755;-33.398;-70.572;2022-11-02T11:08:30;20.00;30.40
74336;DHT22;62755;-33.398;-70.572;2022-11-02T11:11:16;20.10;30.30
74336;DHT22;62755;-33.398;-70.572;2022-11-02T11:13:53;20.10;29.90
74336;DHT22;62755;-33.398;-70.572;2022-11-02T11:16:38;20.10;29.80
74336;DHT22;62755;-33.398;-70.572;2022-11-02T11:19:26;20.10;29.80
74336;DHT22;62755;-33.398;-70.572;2022-11-02T11:21:58;20.30;29.50
74336;DHT22;62755;-33.398;-70.572;2022-11-02T11:24:30;20.30;29.30
74336;DHT22;62755;-33.398;-70.572;2022-11-02T11:27:16;20.30;29.10
74336;DHT22;62755;-33.398;-70.572;2022-11-02T11:29:48;20.40;28.50
74336;DHT22;62755;-33.398;-70.572;2022-11-02T11:32:20;20.40;28.70
74336;DHT22;62755;-33.398;-70.572;2022-11-02T11:35:01;20.30;28.90
74336;DHT22;62755;-33.398;-70.572;2022-11-02T11:37:32;20.30;28.60
74336;DHT22;62755;-33.398;-70.572;2022-11-02T11:40:05;20.30;28.50
74336;DHT22;62755;-33.398;-70.572;2022-11-02T11:42:42;20.30;28.50
74336;DHT22;62755;-33.398;-70.572;2022-11-02T11:45:19;20.30;28.30
74336;DHT22;62755;-33.398;-70.572;2022-11-02T11:47:52;20.10;28.40
74336;DHT22;62755;-33.398;-70.572;2022-11-02T11:50:23;20.20;28.60
74336;DHT22;62755;-33.398;-70.572;2022-11-02T11:53:09;20.30;28.60
74336;DHT22;62755;-33.398;-70.572;2022-11-02T11:55:48;20.50;29.60
74336;DHT22;62755;-33.398;-70.572;2022-11-02T11:58:21;20.50;30.10
74336;DHT22;62755;-33.398;-70.572;2022-11-02T12:01:05;20.50;29.70
74336;DHT22;62755;-33.398;-70.572;2022-11-02T12:03:49;20.50;30.40
74336;DHT22;62755;-33.398;-70.572;2022-11-02T12:06:25;20.50;30.80
74336;DHT22;62755;-33.398;-70.572;2022-11-02T12:09:02;20.50;31.00
74336;DHT22;62755;-33.398;-70.572;2022-11-02T12:11:43;20.50;31.20
74336;DHT22;62755;-33.398;-70.572;2022-11-02T12:14:30;20.50;30.90
74336;DHT22;62755;-33.398;-70.572;2022-11-02T12:17:19;20.50;31.00
74336;DHT22;62755;-33.398;-70.572;2022-11-02T12:20:01;20.50;31.20
74336;DHT22;62755;-33.398;-70.572;2022-11-02T12:22:40;20.50;31.40
74336;DHT22;62755;-33.398;-70.572;2022-11-02T12:25:40;20.50;31.10
74336;DHT22;62755;-33.398;-70.572;2022-11-02T12:28:26;20.60;31.60
74336;DHT22;62755;-33.398;-70.572;2022-11-02T12:31:03;20.70;32.00
74336;DHT22;62755;-33.398;-70.572;2022-11-02T12:33:55;20.80;31.20
74336;DHT22;62755;-33.398;-70.572;2022-11-02T12:36:42;20.90;30.60
74336;DHT22;62755;-33.398;-70.572;2022-11-02T12:39:20;20.90;30.70
74336;DHT22;62755;-33.398;-70.572;2022-11-02T12:42:01;20.80;31.00
74336;DHT22;62755;-33.398;-70.572;2022-11-02T12:44:44;20.90;30.90
74336;DHT22;62755;-33.398;-70.572;2022-11-02T12:47:34;21.00;31.20
74336;DHT22;62755;-33.398;-70.572;2022-11-02T12:50:12;21.00;30.20
74336;DHT22;62755;-33.398;-70.572;2022-11-02T12:52:55;21.10;30.30
74336;DHT22;62755;-33.398;-70.572;2022-11-02T12:55:29;21.10;30.30
74336;DHT22;62755;-33.398;-70.572;2022-11-02T12:58:03;21.20;29.80
74336;DHT22;62755;-33.398;-70.572;2022-11-02T13:00:36;21.20;30.10
74336;DHT22;62755;-33.398;-70.572;2022-11-02T13:03:15;21.30;29.70
74336;DHT22;62755;-33.398;-70.572;2022-11-02T13:05:53;21.30;29.70
74336;DHT22;62755;-33.398;-70.572;2022-11-02T13:08:35;21.30;29.50
74336;DHT22;62755;-33.398;-70.572;2022-11-02T13:11:11;21.30;29.30
74336;DHT22;62755;-33.398;-70.572;2022-11-02T13:13:44;21.30;29.20
74336;DHT22;62755;-33.398;-70.572;2022-11-02T13:16:18;21.20;29.10
74336;DHT22;62755;-33.398;-70.572;2022-11-02T13:18:55;21.30;29.30
74336;DHT22;62755;-33.398;-70.572;2022-11-02T13:21:31;21.30;29.20
74336;DHT22;62755;-33.398;-70.572;2022-11-02T13:24:02;21.30;29.10
74336;DHT22;62755;-33.398;-70.572;2022-11-02T13:26:34;21.40;29.20
74336;DHT22;62755;-33.398;-70.572;2022-11-02T13:29:14;21.40;29.10
74336;DHT22;62755;-33.398;-70.572;2022-11-02T13:31:50;21.40;29.20
74336;DHT22;62755;-33.398;-70.572;2022-11-02T13:34:30;21.40;29.30
74336;DHT22;62755;-33.398;-70.572;2022-11-02T13:37:06;21.50;29.00
74336;DHT22;62755;-33.398;-70.572;2022-11-02T13:39:38;21.40;29.00
74336;DHT22;62755;-33.398;-70.572;2022-11-02T13:45:35;21.50;29.70
74336;DHT22;62755;-33.398;-70.572;2022-11-02T13:48:36;21.60;29.00
74336;DHT22;62755;-33.398;-70.572;2022-11-02T13:51:12;21.70;29.00
74336;DHT22;62755;-33.398;-70.572;2022-11-02T13:53:51;21.80;28.70
74336;DHT22;62755;-33.398;-70.572;2022-11-02T13:56:23;21.90;28.70
74336;DHT22;62755;-33.398;-70.572;2022-11-02T13:59:00;21.90;29.00
74336;DHT22;62755;-33.398;-70.572;2022-11-02T14:01:32;21.90;28.70
74336;DHT22;62755;-33.398;-70.572;2022-11-02T14:04:07;21.90;28.70
74336;DHT22;62755;-33.398;-70.572;2022-11-02T14:06:50;22.00;28.60
74336;DHT22;62755;-33.398;-70.572;2022-11-02T14:09:27;22.00;28.30
74336;DHT22;62755;-33.398;-70.572;2022-11-02T14:12:26;22.00;28.40
74336;DHT22;62755;-33.398;-70.572;2022-11-02T14:15:36;22.10;28.20
74336;DHT22;62755;-33.398;-70.572;2022-11-02T14:18:13;22.20;28.20
74336;DHT22;62755;-33.398;-70.572;2022-11-02T14:20:46;22.20;28.30
74336;DHT22;62755;-33.398;-70.572;2022-11-02T14:23:37;22.20;28.60
74336;DHT22;62755;-33.398;-70.572;2022-11-02T14:26:33;22.20;28.40
74336;DHT22;62755;-33.398;-70.572;2022-11-02T14:29:47;22.30;28.40
74336;DHT22;62755;-33.398;-70.572;2022-11-02T14:32:26;22.40;28.40
74336;DHT22;62755;-33.398;-70.572;2022-11-02T14:35:16;22.50;28.40
74336;DHT22;62755;-33.398;-70.572;2022-11-02T14:40:51;22.50;28.30
74336;DHT22;62755;-33.398;-70.572;2022-11-02T14:43:45;22.60;28.70
74336;DHT22;62755;-33.398;-70.572;2022-11-02T14:46:30;22.60;28.00
74336;DHT22;62755;-33.398;-70.572;2022-11-02T14:49:02;22.70;28.20
74336;DHT22;62755;-33.398;-70.572;2022-11-02T14:51:35;22.80;27.90
74336;DHT22;62755;-33.398;-70.572;2022-11-02T14:54:15;22.80;27.50
74336;DHT22;62755;-33.398;-70.572;2022-11-02T14:56:51;22.90;27.10
74336;DHT22;62755;-33.398;-70.572;2022-11-02T14:59:26;22.90;27.60
74336;DHT22;62755;-33.398;-70.572;2022-11-02T15:01:59;22.90;27.80
74336;DHT22;62755;-33.398;-70.572;2022-11-02T15:04:31;23.00;27.80
74336;DHT22;62755;-33.398;-70.572;2022-11-02T15:07:02;23.10;28.00
74336;DHT22;62755;-33.398;-70.572;2022-11-02T15:09:55;23.10;28.00
74336;DHT22;62755;-33.398;-70.572;2022-11-02T15:12:43;23.20;27.70
74336;DHT22;62755;-33.398;-70.572;2022-11-02T15:15:32;23.30;27.20
74336;DHT22;62755;-33.398;-70.572;2022-11-02T15:18:31;23.40;26.80
74336;DHT22;62755;-33.398;-70.572;2022-11-02T15:21:26;23.50;27.00
74336;DHT22;62755;-33.398;-70.572;2022-11-02T15:24:13;23.50;27.20
74336;DHT22;62755;-33.398;-70.572;2022-11-02T15:26:50;23.60;26.90
74336;DHT22;62755;-33.398;-70.572;2022-11-02T15:29:35;23.60;26.80
74336;DHT22;62755;-33.398;-70.572;2022-11-02T15:32:10;23.60;26.50
74336;DHT22;62755;-33.398;-70.572;2022-11-02T15:34:43;23.70;26.60
74336;DHT22;62755;-33.398;-70.572;2022-11-02T15:37:17;23.80;26.60
74336;DHT22;62755;-33.398;-70.572;2022-11-02T15:39:50;23.80;26.60
74336;DHT22;62755;-33.398;-70.572;2022-11-02T15:42:29;23.90;26.80